Time;durP1;ratioP1;P1;durP2;ratioP2;P2;SDS_P1;SDS_P2;PMS_P1;PMS_P2;Temp;Humidity;BMP_temperature;BMP_pressure;BME280_temperature;BME280_humidity;BME280_pressure;Samples;Min_cycle;Max_cycle;Signal;HPM_P1;HPM_P2
2021/07/10 00:01:42;;;;;;;17.33;7.38;;;22.80;81.70;;;;;;4229222;28;20060;-74
2021/07/10 00:03:47;;;;;;;13.57;7.03;;;22.90;81.20;;;;;;4229471;28;20062;-73
2021/07/10 00:05:50;;;;;;;13.25;6.70;;;22.80;82.20;;;;;;4211485;28;20052;-73
2021/07/10 00:07:53;;;;;;;14.63;7.38;;;22.80;80.80;;;;;;4229344;28;20047;-74
2021/07/10 00:09:56;;;;;;;13.70;7.25;;;22.90;81.50;;;;;;4231775;28;20055;-74
2021/07/10 00:11:59;;;;;;;20.95;7.47;;;22.80;82.20;;;;;;4234018;28;20067;-76
2021/07/10 00:14:02;;;;;;;14.88;7.43;;;22.80;83.00;;;;;;4246805;28;20052;-73
2021/07/10 00:16:06;;;;;;;23.25;7.70;;;22.80;81.70;;;;;;4221361;28;20622;-74
2021/07/10 00:18:09;;;;;;;13.32;6.85;;;22.80;83.30;;;;;;4234218;28;20470;-74
2021/07/10 00:20:14;;;;;;;13.48;7.28;;;22.70;82.60;;;;;;4229561;28;20062;-75
2021/07/10 00:22:17;;;;;;;18.80;7.50;;;22.70;82.70;;;;;;4230561;28;20047;-74
2021/07/10 00:24:20;;;;;;;19.25;7.50;;;22.80;82.30;;;;;;4242296;28;20062;-75
2021/07/10 00:26:23;;;;;;;14.43;7.65;;;22.70;82.50;;;;;;4240186;28;20047;-75
2021/07/10 00:28:26;;;;;;;13.77;7.72;;;22.70;83.40;;;;;;4246186;28;20051;-75
2021/07/10 00:30:30;;;;;;;14.50;6.72;;;22.80;82.20;;;;;;4245577;28;20067;-74
2021/07/10 00:32:33;;;;;;;16.35;7.18;;;22.80;81.60;;;;;;4242912;28;20055;-74
2021/07/10 00:34:36;;;;;;;13.98;7.05;;;22.80;81.70;;;;;;4236211;28;20052;-73
2021/07/10 00:36:41;;;;;;;19.00;7.38;;;22.80;82.20;;;;;;4232942;28;20052;-75
2021/07/10 00:38:44;;;;;;;11.50;6.72;;;22.80;81.90;;;;;;4232479;28;20407;-74
2021/07/10 00:40:47;;;;;;;11.75;7.10;;;22.80;81.70;;;;;;4232203;28;20058;-74
2021/07/10 00:42:50;;;;;;;17.85;7.32;;;22.80;82.30;;;;;;4232653;28;20472;-74
2021/07/10 00:44:53;;;;;;;18.15;6.93;;;22.80;82.10;;;;;;4233039;28;20058;-75
2021/07/10 00:46:56;;;;;;;17.65;6.72;;;22.80;81.90;;;;;;4232711;28;20421;-74
2021/07/10 00:48:59;;;;;;;12.20;7.05;;;22.80;82.00;;;;;;4232710;28;20052;-75
2021/07/10 00:51:02;;;;;;;14.88;6.95;;;22.80;81.70;;;;;;4232702;28;20055;-74
2021/07/10 00:53:07;;;;;;;13.73;7.57;;;22.90;81.80;;;;;;4232313;28;20052;-74
2021/07/10 00:55:12;;;;;;;15.73;7.32;;;22.80;81.90;;;;;;4232011;28;20054;-75
2021/07/10 00:57:15;;;;;;;15.77;7.60;;;22.80;82.00;;;;;;4232103;28;20055;-74
2021/07/10 00:59:18;;;;;;;12.18;7.20;;;22.80;82.80;;;;;;4232037;28;20055;-75
2021/07/10 01:01:21;;;;;;;14.80;6.80;;;22.80;83.10;;;;;;4232467;28;20059;-74
2021/07/10 01:03:27;;;;;;;10.13;6.40;;;22.70;82.90;;;;;;4214768;28;20059;-74
2021/07/10 01:05:34;;;;;;;23.30;8.20;;;22.70;82.80;;;;;;4232920;28;20051;-74
2021/07/10 01:07:39;;;;;;;10.25;6.78;;;22.70;82.50;;;;;;4232055;28;20056;-74
2021/07/10 01:09:43;;;;;;;16.08;7.28;;;22.80;82.40;;;;;;4232324;28;20055;-74
2021/07/10 01:11:47;;;;;;;12.60;7.68;;;22.80;83.10;;;;;;4232786;28;20182;-74
2021/07/10 01:13:50;;;;;;;17.85;8.15;;;22.70;84.10;;;;;;4234106;28;20051;-74
2021/07/10 01:15:53;;;;;;;14.25;7.25;;;22.60;84.40;;;;;;4235514;28;20066;-75
2021/07/10 01:17:57;;;;;;;21.52;7.78;;;22.50;85.20;;;;;;4236721;28;20078;-74
2021/07/10 01:20:03;;;;;;;15.10;7.57;;;22.60;85.60;;;;;;4237303;28;20100;-74
2021/07/10 01:22:09;;;;;;;17.10;7.90;;;22.60;84.80;;;;;;4234641;28;20148;-75
2021/07/10 01:24:12;;;;;;;15.55;7.15;;;22.60;85.00;;;;;;4235556;28;20061;-75
2021/07/10 01:26:15;;;;;;;16.75;7.72;;;22.60;85.20;;;;;;4232333;28;20059;-75
2021/07/10 01:28:19;;;;;;;17.40;7.13;;;22.60;85.40;;;;;;4231914;28;20411;-74
2021/07/10 01:30:23;;;;;;;15.80;7.33;;;22.60;84.70;;;;;;4231758;28;20048;-75
2021/07/10 01:32:27;;;;;;;11.52;6.93;;;22.70;84.40;;;;;;4231615;28;20060;-75
2021/07/10 01:34:34;;;;;;;15.02;7.70;;;22.70;85.00;;;;;;4231856;28;20138;-75
2021/07/10 01:36:38;;;;;;;16.08;7.03;;;22.70;84.60;;;;;;4231198;28;20051;-74
2021/07/10 01:38:42;;;;;;;13.80;8.10;;;22.70;84.90;;;;;;4231148;28;20136;-74
2021/07/10 01:40:46;;;;;;;16.70;7.25;;;22.60;84.80;;;;;;4231035;28;20056;-75
2021/07/10 01:42:49;;;;;;;18.50;8.20;;;22.60;84.80;;;;;;4231443;28;20056;-75
2021/07/10 01:44:52;;;;;;;14.75;7.32;;;22.60;85.50;;;;;;4231365;28;20087;-74
2021/07/10 01:46:55;;;;;;;13.45;7.53;;;22.60;84.70;;;;;;4231641;28;20058;-74
2021/07/10 01:48:58;;;;;;;18.25;8.38;;;22.60;86.00;;;;;;4231371;28;20054;-74
2021/07/10 01:51:01;;;;;;;15.68;8.88;;;22.50;86.00;;;;;;4231438;28;20062;-74
2021/07/10 01:53:04;;;;;;;21.15;9.10;;;22.40;86.70;;;;;;4231353;28;20399;-75
2021/07/10 01:55:11;;;;;;;15.70;8.48;;;22.30;86.90;;;;;;4213041;28;20055;-74
2021/07/10 01:57:14;;;;;;;18.95;9.35;;;22.50;86.20;;;;;;4231253;28;20408;-74
2021/07/10 01:59:17;;;;;;;18.50;9.43;;;22.60;85.40;;;;;;4231612;28;20377;-75
2021/07/10 02:01:20;;;;;;;19.75;9.30;;;22.50;85.60;;;;;;4231480;28;20491;-75
2021/07/10 02:03:24;;;;;;;17.45;9.32;;;22.60;85.20;;;;;;4230832;28;20136;-74
2021/07/10 02:05:28;;;;;;;18.65;9.48;;;22.60;84.80;;;;;;4230848;28;20051;-74
2021/07/10 02:07:31;;;;;;;24.38;9.52;;;22.60;84.90;;;;;;4230777;28;20051;-75
2021/07/10 02:09:34;;;;;;;25.30;10.15;;;22.70;85.20;;;;;;4231095;28;20056;-75
2021/07/10 02:11:43;;;;;;;23.63;10.15;;;22.60;85.90;;;;;;4213653;28;20060;-74
2021/07/10 02:13:46;;;;;;;22.80;8.98;;;22.50;85.30;;;;;;4233597;28;20206;-74
2021/07/10 02:15:49;;;;;;;21.85;9.43;;;22.60;84.60;;;;;;4240632;28;20511;-74
2021/07/10 02:17:53;;;;;;;24.00;9.75;;;22.60;85.70;;;;;;4242675;28;20060;-74
2021/07/10 02:19:56;;;;;;;20.33;8.90;;;22.60;85.30;;;;;;4217178;28;20060;-75
2021/07/10 02:21:59;;;;;;;13.73;8.35;;;22.70;84.60;;;;;;4235834;28;20500;-74
2021/07/10 02:24:02;;;;;;;14.20;7.07;;;22.70;84.10;;;;;;4234448;28;20053;-75
2021/07/10 02:26:05;;;;;;;18.55;7.97;;;22.70;84.00;;;;;;4232498;28;20055;-74
2021/07/10 02:28:10;;;;;;;15.15;7.07;;;22.80;84.10;;;;;;4236365;28;20055;-74
2021/07/10 02:30:15;;;;;;;12.85;6.13;;;22.70;84.10;;;;;;4237795;28;20055;-74
2021/07/10 02:32:18;;;;;;;12.90;6.47;;;22.80;82.70;;;;;;4235612;28;20488;-74
2021/07/10 02:34:21;;;;;;;11.00;5.72;;;22.80;83.90;;;;;;4230891;28;20139;-74
2021/07/10 02:36:24;;;;;;;10.35;5.97;;;22.70;83.00;;;;;;4231213;28;20055;-75
2021/07/10 02:38:27;;;;;;;9.57;5.43;;;22.70;83.20;;;;;;4231781;28;20051;-74
2021/07/10 02:40:30;;;;;;;11.00;5.45;;;22.80;82.90;;;;;;4234959;28;20130;-75
2021/07/10 02:42:34;;;;;;;8.60;5.22;;;22.80;82.60;;;;;;4216110;28;20075;-75
2021/07/10 02:44:38;;;;;;;6.70;5.00;;;22.70;82.30;;;;;;4235910;28;20051;-75
2021/07/10 02:46:41;;;;;;;9.95;4.72;;;22.80;82.00;;;;;;4217777;28;20131;-74
2021/07/10 02:48:44;;;;;;;9.40;4.63;;;22.80;82.20;;;;;;4234915;28;20125;-75
2021/07/10 02:50:47;;;;;;;7.95;4.60;;;22.80;81.90;;;;;;4231317;28;20058;-75
2021/07/10 02:52:53;;;;;;;5.72;4.10;;;22.70;81.30;;;;;;4230460;28;20510;-75
2021/07/10 02:54:56;;;;;;;8.98;4.07;;;22.70;81.60;;;;;;4229879;28;20061;-75
2021/07/10 02:56:59;;;;;;;8.88;4.65;;;22.70;81.30;;;;;;4230197;28;20054;-75
2021/07/10 02:59:02;;;;;;;8.48;5.07;;;22.70;80.70;;;;;;4230323;28;20058;-74
2021/07/10 03:01:06;;;;;;;9.95;4.53;;;22.70;80.80;;;;;;4229894;28;20051;-75
2021/07/10 03:03:09;;;;;;;5.95;4.22;;;22.70;81.00;;;;;;4229881;28;20512;-75
2021/07/10 03:05:13;;;;;;;11.43;4.93;;;22.70;80.30;;;;;;4230551;28;20058;-74
2021/07/10 03:07:16;;;;;;;6.80;4.50;;;22.70;80.60;;;;;;4230269;28;20504;-74
2021/07/10 03:09:19;;;;;;;9.27;5.10;;;22.60;80.50;;;;;;4231614;28;20054;-74
2021/07/10 03:11:22;;;;;;;7.03;4.75;;;22.70;81.10;;;;;;4230244;28;20048;-74
2021/07/10 03:13:26;;;;;;;12.50;4.70;;;22.60;80.90;;;;;;4232195;28;20052;-75
2021/07/10 03:15:30;;;;;;;10.90;4.47;;;22.40;80.50;;;;;;4233936;28;20116;-75
2021/07/10 03:17:34;;;;;;;12.52;4.90;;;22.40;80.80;;;;;;4234907;28;20055;-74
2021/07/10 03:19:37;;;;;;;7.75;4.70;;;22.50;80.70;;;;;;4216287;28;20044;-75
2021/07/10 03:21:42;;;;;;;7.68;4.20;;;22.40;81.10;;;;;;4237964;28;20486;-75
2021/07/10 03:23:45;;;;;;;7.10;4.28;;;22.40;80.90;;;;;;4239030;28;20055;-74
2021/07/10 03:25:48;;;;;;;7.32;4.25;;;22.40;80.60;;;;;;4236611;28;20047;-75
2021/07/10 03:27:53;;;;;;;8.93;4.45;;;22.30;80.60;;;;;;4235820;28;20056;-75
2021/07/10 03:29:56;;;;;;;9.90;4.97;;;22.40;80.80;;;;;;4233388;28;20050;-74
2021/07/10 03:31:59;;;;;;;8.55;4.68;;;22.40;81.00;;;;;;4231263;28;20055;-74
2021/07/10 03:34:03;;;;;;;8.15;5.07;;;22.40;80.90;;;;;;4231609;28;20107;-73
2021/07/10 03:36:07;;;;;;;9.07;4.38;;;22.40;81.10;;;;;;4234259;28;20074;-73
2021/07/10 03:38:10;;;;;;;6.63;4.47;;;22.40;80.70;;;;;;4234929;28;20408;-74
2021/07/10 03:40:16;;;;;;;8.15;4.15;;;22.50;80.90;;;;;;4233588;28;20415;-73
2021/07/10 03:42:19;;;;;;;9.02;4.32;;;22.50;80.40;;;;;;4215170;28;20063;-75
2021/07/10 03:44:22;;;;;;;7.90;4.97;;;22.40;81.00;;;;;;4233090;28;20116;-75
2021/07/10 03:46:25;;;;;;;9.57;4.63;;;22.50;80.80;;;;;;4233520;28;20642;-75
2021/07/10 03:48:28;;;;;;;6.13;4.68;;;22.50;80.50;;;;;;4233130;28;20051;-75
2021/07/10 03:50:32;;;;;;;10.95;4.68;;;22.50;81.00;;;;;;4215043;28;20046;-75
2021/07/10 03:52:36;;;;;;;8.52;4.28;;;22.50;81.00;;;;;;4233583;28;20052;-74
2021/07/10 03:54:39;;;;;;;10.45;5.38;;;22.50;81.20;;;;;;4232797;28;20512;-74
2021/07/10 03:56:42;;;;;;;9.38;4.95;;;22.50;81.30;;;;;;4232665;28;20101;-74
2021/07/10 03:58:45;;;;;;;10.35;5.10;;;22.50;80.70;;;;;;4231749;28;20047;-77
2021/07/10 04:00:48;;;;;;;7.45;4.57;;;22.50;80.50;;;;;;4231078;28;20526;-75
2021/07/10 04:02:51;;;;;;;15.02;5.32;;;22.40;81.30;;;;;;4230982;28;20633;-75
2021/07/10 04:04:54;;;;;;;9.00;5.28;;;22.40;80.80;;;;;;4233115;28;20047;-73
2021/07/10 04:06:59;;;;;;;10.73;4.90;;;22.40;81.50;;;;;;4233695;28;20047;-74
2021/07/10 04:09:02;;;;;;;;;;;22.40;80.80;;;;;;4236104;28;20500;-75
2021/07/10 04:11:07;;;;;;;10.38;5.13;;;22.40;81.50;;;;;;4235703;28;20405;-75
2021/07/10 04:13:10;;;;;;;;;;;22.40;80.90;;;;;;4236074;28;20095;-75
2021/07/10 04:15:17;;;;;;;10.05;4.82;;;22.50;81.30;;;;;;4235825;28;20433;-74
2021/07/10 04:17:20;;;;;;;7.85;5.47;;;22.40;82.10;;;;;;4236378;28;20064;-75
2021/07/10 04:19:23;;;;;;;10.10;4.65;;;22.40;81.50;;;;;;4242415;28;20058;-74
2021/07/10 04:21:26;;;;;;;8.48;4.72;;;22.40;81.10;;;;;;4239790;28;20137;-73
2021/07/10 04:23:32;;;;;;;12.10;5.53;;;22.50;81.00;;;;;;4234988;28;20569;-73
2021/07/10 04:25:35;;;;;;;8.02;4.90;;;22.50;81.10;;;;;;4235182;28;20058;-75
2021/07/10 04:27:39;;;;;;;12.48;5.30;;;22.50;81.70;;;;;;4239086;28;20567;-74
2021/07/10 04:29:44;;;;;;;7.65;5.20;;;22.50;81.50;;;;;;4236807;28;20039;-75
2021/07/10 04:31:47;;;;;;;11.02;5.28;;;22.40;82.70;;;;;;4218971;28;20560;-74
2021/07/10 04:33:50;;;;;;;8.82;4.85;;;22.40;82.80;;;;;;4237427;28;20056;-75
2021/07/10 04:35:53;;;;;;;8.88;5.20;;;22.30;83.30;;;;;;4238956;28;20078;-74
2021/07/10 04:37:56;;;;;;;7.90;4.57;;;22.30;82.70;;;;;;4241715;28;20115;-74
2021/07/10 04:40:05;;;;;;;10.13;4.95;;;22.30;82.30;;;;;;4241867;28;20093;-74
2021/07/10 04:42:09;;;;;;;10.07;4.57;;;22.30;82.60;;;;;;4240501;28;20055;-75
2021/07/10 04:44:12;;;;;;;10.23;4.57;;;22.40;82.60;;;;;;4239433;28;20051;-74
2021/07/10 04:46:15;;;;;;;6.45;4.47;;;22.40;82.60;;;;;;4239221;28;20051;-77
2021/07/10 04:48:18;;;;;;;8.07;4.25;;;22.40;82.70;;;;;;4236562;28;20059;-75
2021/07/10 04:50:24;;;;;;;8.82;4.20;;;22.30;83.20;;;;;;4236595;28;20146;-75
2021/07/10 04:52:28;;;;;;;7.35;4.15;;;22.30;83.30;;;;;;4236313;28;20070;-75
2021/07/10 04:54:31;;;;;;;9.55;4.55;;;22.30;84.00;;;;;;4235247;28;20508;-75
2021/07/10 04:56:36;;;;;;;7.13;4.22;;;22.20;84.60;;;;;;4234931;28;20069;-75
2021/07/10 04:58:39;;;;;;;10.05;4.65;;;22.10;84.80;;;;;;4233067;28;20134;-75
2021/07/10 05:00:42;;;;;;;6.75;5.00;;;22.10;84.40;;;;;;4232415;28;20132;-75
2021/07/10 05:02:45;;;;;;;6.25;4.00;;;22.20;84.50;;;;;;4232083;28;20052;-75
2021/07/10 05:04:48;;;;;;;7.68;4.45;;;22.30;83.80;;;;;;4232218;28;20058;-75
2021/07/10 05:06:51;;;;;;;9.40;4.60;;;22.30;83.50;;;;;;4233389;28;20062;-75
2021/07/10 05:08:54;;;;;;;10.07;4.85;;;22.40;83.50;;;;;;4233020;28;20044;-73
2021/07/10 05:10:57;;;;;;;10.52;4.55;;;22.40;83.80;;;;;;4214554;28;20150;-75
2021/07/10 05:13:02;;;;;;;10.98;5.03;;;22.50;83.40;;;;;;4231781;28;20137;-73
2021/07/10 05:15:07;;;;;;;6.50;4.03;;;22.50;83.20;;;;;;4232052;28;20044;-74
2021/07/10 05:17:10;;;;;;;10.95;4.25;;;22.60;83.10;;;;;;4231974;28;20063;-74
2021/07/10 05:19:13;;;;;;;6.07;3.80;;;22.60;82.90;;;;;;4232700;28;20498;-75
2021/07/10 05:21:16;;;;;;;9.85;4.38;;;22.60;82.60;;;;;;4231744;28;20052;-77
2021/07/10 05:23:19;;;;;;;6.18;4.05;;;22.70;83.10;;;;;;4213605;28;20690;-77
2021/07/10 05:25:22;;;;;;;7.55;4.05;;;22.70;83.20;;;;;;4231535;28;20062;-77
2021/07/10 05:27:25;;;;;;;8.25;4.30;;;22.80;82.90;;;;;;4231902;28;20052;-77
2021/07/10 05:29:29;;;;;;;7.65;3.80;;;22.70;83.00;;;;;;4231680;28;20046;-76
2021/07/10 05:31:33;;;;;;;5.03;3.70;;;22.70;83.20;;;;;;4235529;28;20062;-75
2021/07/10 05:33:36;;;;;;;7.00;3.97;;;22.70;82.80;;;;;;4235734;28;20051;-75
2021/07/10 05:35:39;;;;;;;7.55;3.95;;;22.80;82.80;;;;;;4236308;28;20143;-75
2021/07/10 05:37:42;;;;;;;7.15;4.18;;;22.80;82.90;;;;;;4235366;28;20074;-75
2021/07/10 05:39:45;;;;;;;7.13;4.60;;;22.80;83.50;;;;;;4235290;28;20060;-75
2021/07/10 05:41:48;;;;;;;6.57;4.53;;;22.80;83.40;;;;;;4235594;28;20062;-75
2021/07/10 05:43:51;;;;;;;7.78;4.65;;;22.70;84.00;;;;;;4236673;28;20537;-75
2021/07/10 05:45:55;;;;;;;14.48;5.18;;;22.50;85.00;;;;;;4235521;28;20537;-75
2021/07/10 05:47:59;;;;;;;7.82;4.65;;;22.60;85.40;;;;;;4234372;28;20423;-74
2021/07/10 05:50:03;;;;;;;6.63;4.13;;;22.50;85.20;;;;;;4217668;28;20111;-75
2021/07/10 05:52:07;;;;;;;5.95;4.30;;;22.60;84.40;;;;;;4236371;28;20052;-75
2021/07/10 05:54:10;;;;;;;10.80;4.72;;;22.70;85.10;;;;;;4236969;28;20054;-75
2021/07/10 05:56:13;;;;;;;5.40;4.60;;;22.70;85.00;;;;;;4233244;28;20048;-75
2021/07/10 05:58:16;;;;;;;11.25;4.75;;;22.70;84.90;;;;;;4232032;28;20051;-75
2021/07/10 06:00:19;;;;;;;12.55;4.82;;;22.70;85.10;;;;;;4233629;28;20051;-74
2021/07/10 06:02:27;;;;;;;9.02;4.75;;;22.60;85.00;;;;;;4215087;28;20056;-75
2021/07/10 06:04:30;;;;;;;8.02;4.93;;;22.70;85.30;;;;;;4231991;28;20085;-76
2021/07/10 06:06:33;;;;;;;7.35;5.20;;;22.60;85.00;;;;;;4213936;28;20365;-75
2021/07/10 06:08:36;;;;;;;8.55;4.53;;;22.50;85.60;;;;;;4231403;28;20415;-74
2021/07/10 06:10:39;;;;;;;8.23;4.50;;;22.40;86.20;;;;;;4231744;28;20074;-75
2021/07/10 06:12:43;;;;;;;8.90;5.05;;;22.50;86.30;;;;;;4233099;28;20103;-75
2021/07/10 06:14:46;;;;;;;6.00;4.28;;;22.60;85.90;;;;;;4242232;28;20640;-76
2021/07/10 06:16:49;;;;;;;11.75;4.95;;;22.60;85.70;;;;;;4240709;28;20118;-75
2021/07/10 06:18:53;;;;;;;6.22;4.40;;;22.70;85.70;;;;;;4243895;28;20107;-75
2021/07/10 06:20:56;;;;;;;7.13;4.95;;;22.70;86.10;;;;;;4241964;28;20107;-75
2021/07/10 06:23:00;;;;;;;12.98;4.88;;;22.70;86.00;;;;;;4241517;28;20052;-76
2021/07/10 06:25:06;;;;;;;8.63;4.32;;;22.80;85.50;;;;;;4240845;28;20559;-75
2021/07/10 06:27:09;;;;;;;9.60;4.63;;;22.80;85.40;;;;;;4233182;28;20408;-75
2021/07/10 06:29:12;;;;;;;11.73;5.38;;;22.80;85.60;;;;;;4232238;28;20048;-75
2021/07/10 06:31:15;;;;;;;8.90;5.25;;;22.80;85.60;;;;;;4231316;28;20056;-76
2021/07/10 06:33:18;;;;;;;6.25;4.22;;;22.80;85.90;;;;;;4232233;28;20052;-74
2021/07/10 06:35:23;;;;;;;7.05;5.35;;;22.80;85.90;;;;;;4236935;28;20056;-77
2021/07/10 06:37:26;;;;;;;9.88;4.72;;;22.50;86.50;;;;;;4236371;28;20051;-74
2021/07/10 06:39:29;;;;;;;7.57;4.53;;;22.60;86.30;;;;;;4216774;28;20052;-75
2021/07/10 06:41:32;;;;;;;9.73;4.72;;;22.60;86.90;;;;;;4231871;28;20055;-74
2021/07/10 06:43:35;;;;;;;10.05;4.93;;;22.70;86.30;;;;;;4232175;28;20070;-73
2021/07/10 06:45:39;;;;;;;5.10;4.17;;;22.70;87.00;;;;;;4232247;28;20172;-74
2021/07/10 06:47:42;;;;;;;7.05;4.63;;;22.70;86.10;;;;;;4230979;28;20419;-75
2021/07/10 06:49:45;;;;;;;9.35;4.72;;;22.80;86.00;;;;;;4212921;28;20056;-75
2021/07/10 06:51:50;;;;;;;7.15;4.72;;;22.90;85.50;;;;;;4235340;28;20051;-74
2021/07/10 06:53:53;;;;;;;8.32;4.55;;;22.90;85.70;;;;;;4241689;28;20050;-75
2021/07/10 06:55:56;;;;;;;11.00;4.38;;;22.80;85.30;;;;;;4242373;28;20055;-74
2021/07/10 06:57:59;;;;;;;7.25;4.63;;;22.90;84.80;;;;;;4244757;28;20310;-75
2021/07/10 07:00:04;;;;;;;7.30;4.97;;;23.00;84.90;;;;;;4244543;28;20051;-75
2021/07/10 07:02:07;;;;;;;7.97;3.80;;;23.00;84.30;;;;;;4240647;28;20134;-73
2021/07/10 07:04:10;;;;;;;7.28;3.50;;;23.00;83.90;;;;;;4235702;28;20058;-75
2021/07/10 07:06:13;;;;;;;9.43;4.47;;;23.00;84.10;;;;;;4216525;28;20095;-74
2021/07/10 07:08:18;;;;;;;9.15;4.35;;;23.10;83.80;;;;;;4232011;28;20131;-74
2021/07/10 07:10:21;;;;;;;8.13;3.45;;;23.10;83.00;;;;;;4231696;28;20112;-74
2021/07/10 07:12:24;;;;;;;7.10;4.13;;;23.10;83.50;;;;;;4231186;28;20058;-75
2021/07/10 07:14:27;;;;;;;7.10;3.78;;;23.10;83.20;;;;;;4230728;28;20048;-75
2021/07/10 07:16:30;;;;;;;9.07;3.95;;;23.10;83.10;;;;;;4230202;28;20052;-74
2021/07/10 07:18:33;;;;;;;8.95;4.20;;;23.20;83.00;;;;;;4230076;28;20056;-75
2021/07/10 07:20:40;;;;;;;7.97;3.83;;;23.10;83.10;;;;;;4229991;28;20051;-75
2021/07/10 07:22:44;;;;;;;10.48;3.97;;;23.10;83.90;;;;;;4229680;28;20404;-74
2021/07/10 07:24:48;;;;;;;10.80;4.35;;;23.00;84.80;;;;;;4229481;28;20059;-75
2021/07/10 07:26:52;;;;;;;11.95;4.80;;;23.20;85.00;;;;;;4229474;28;20048;-74
2021/07/10 07:28:55;;;;;;;9.80;4.22;;;23.30;85.20;;;;;;4230142;28;20055;-75
2021/07/10 07:30:58;;;;;;;6.78;4.63;;;23.30;85.30;;;;;;4229872;28;20055;-75
2021/07/10 07:33:01;;;;;;;7.90;4.20;;;23.30;85.50;;;;;;4230136;28;20070;-75
2021/07/10 07:35:06;;;;;;;8.35;3.90;;;23.20;84.00;;;;;;4229519;28;20425;-73
2021/07/10 07:37:09;;;;;;;10.52;4.10;;;23.20;85.50;;;;;;4230139;28;20055;-75
2021/07/10 07:39:12;;;;;;;6.10;4.18;;;23.20;85.60;;;;;;4229742;28;20510;-75
2021/07/10 07:41:18;;;;;;;5.63;3.55;;;23.20;85.90;;;;;;4229469;28;20132;-75
2021/07/10 07:43:22;;;;;;;7.55;4.00;;;23.30;85.50;;;;;;4229201;28;20052;-76
2021/07/10 07:45:25;;;;;;;7.05;3.55;;;22.80;83.80;;;;;;4229200;28;20056;-74
2021/07/10 07:47:28;;;;;;;6.95;3.97;;;22.90;83.90;;;;;;4229693;28;20078;-73
2021/07/10 07:49:31;;;;;;;9.57;4.25;;;23.00;84.40;;;;;;4229337;28;20060;-75
2021/07/10 07:51:35;;;;;;;9.00;3.72;;;23.10;85.60;;;;;;4229306;28;20047;-75
2021/07/10 07:53:38;;;;;;;5.63;3.65;;;23.00;84.90;;;;;;4229367;28;20051;-75
2021/07/10 07:55:41;;;;;;;8.93;3.53;;;23.10;84.10;;;;;;4229461;28;20052;-75
2021/07/10 07:57:45;;;;;;;6.40;3.78;;;22.90;85.00;;;;;;4230100;28;20143;-75
2021/07/10 07:59:48;;;;;;;6.07;4.10;;;22.90;84.20;;;;;;4231199;28;20404;-75
2021/07/10 08:01:52;;;;;;;5.35;3.65;;;22.80;84.20;;;;;;4231845;28;20052;-75
2021/07/10 08:03:55;;;;;;;4.97;3.60;;;22.80;84.10;;;;;;4235627;28;20062;-75
2021/07/10 08:05:58;;;;;;;7.68;3.58;;;22.70;85.00;;;;;;4218696;28;20066;-78
2021/07/10 08:08:02;;;;;;;7.57;3.67;;;22.70;84.50;;;;;;4235506;28;20115;-74
2021/07/10 08:10:07;;;;;;;6.28;3.67;;;22.60;85.30;;;;;;4231744;28;20489;-75
2021/07/10 08:12:10;;;;;;;8.95;3.70;;;22.70;84.60;;;;;;4229609;28;20062;-75
2021/07/10 08:14:14;;;;;;;6.63;3.75;;;22.90;84.50;;;;;;4211660;28;20059;-75
2021/07/10 08:16:18;;;;;;;6.10;4.05;;;23.00;84.90;;;;;;4229545;28;20051;-76
2021/07/10 08:18:21;;;;;;;6.55;3.45;;;22.80;84.40;;;;;;4211519;28;20052;-75
2021/07/10 08:20:24;;;;;;;7.82;4.00;;;22.70;84.20;;;;;;4229607;28;20415;-75
2021/07/10 08:22:27;;;;;;;5.15;3.47;;;22.90;84.10;;;;;;4231311;28;20077;-75
2021/07/10 08:24:30;;;;;;;5.82;3.40;;;23.10;84.10;;;;;;4231973;28;20052;-74
2021/07/10 08:26:34;;;;;;;4.07;3.20;;;23.10;83.10;;;;;;4245139;28;20059;-75
2021/07/10 08:28:37;;;;;;;5.80;3.13;;;23.20;82.40;;;;;;4237657;28;20502;-75
2021/07/10 08:30:41;;;;;;;5.40;3.65;;;23.20;82.80;;;;;;4231207;28;20061;-74
2021/07/10 08:32:46;;;;;;;7.85;3.50;;;23.20;84.10;;;;;;4229215;28;20052;-75
2021/07/10 08:34:50;;;;;;;;;;;23.20;83.70;;;;;;4229941;28;20149;-75
2021/07/10 08:36:53;;;;;;;6.10;3.65;;;23.30;82.70;;;;;;4228886;28;19926;-75
2021/07/10 08:38:55;;;;;;;5.30;3.28;;;23.40;83.20;;;;;;4229577;28;20048;-75
2021/07/10 08:40:59;;;;;;;9.48;2.90;;;23.30;81.40;;;;;;4229525;28;20062;-76
2021/07/10 08:43:02;;;;;;;5.32;3.10;;;23.20;81.60;;;;;;4229013;28;20060;-76
2021/07/10 08:45:07;;;;;;;9.45;3.50;;;23.30;82.40;;;;;;4229930;28;20066;-74
2021/07/10 08:47:14;;;;;;;;;;;23.40;82.40;;;;;;4230270;28;20052;-77
2021/07/10 08:49:18;;;;;;;4.82;3.30;;;23.20;78.90;;;;;;4231429;28;20026;-74
2021/07/10 08:51:21;;;;;;;5.30;3.63;;;23.20;80.40;;;;;;4231976;28;20052;-76
2021/07/10 08:53:25;;;;;;;4.82;2.83;;;23.20;81.50;;;;;;4238500;28;20265;-76
2021/07/10 08:55:28;;;;;;;8.23;3.88;;;23.30;80.20;;;;;;4240101;28;20047;-77
2021/07/10 08:57:35;;;;;;;12.13;4.03;;;23.40;80.90;;;;;;4247199;28;20052;-76
2021/07/10 08:59:39;;;;;;;10.18;3.55;;;23.40;80.70;;;;;;4246803;28;20052;-76
2021/07/10 09:01:42;;;;;;;4.82;3.08;;;23.40;80.70;;;;;;4226650;28;20111;-74
2021/07/10 09:03:46;;;;;;;5.50;3.25;;;23.40;80.80;;;;;;4246347;28;20052;-74
2021/07/10 09:05:49;;;;;;;5.75;3.40;;;23.50;80.30;;;;;;4243615;28;20111;-74
2021/07/10 09:08:13;;;;;;;5.60;3.58;;;23.50;80.60;;;;;;4242416;28;20111;-75
2021/07/10 09:10:35;;;;;;;5.93;3.40;;;23.60;80.90;;;;;;4242448;28;20138;-74
2021/07/10 09:12:39;;;;;;;5.63;3.35;;;23.60;82.20;;;;;;4237587;28;20077;-75
2021/07/10 09:14:42;;;;;;;8.80;3.47;;;23.60;81.80;;;;;;4238736;28;20056;-75
2021/07/10 09:16:45;;;;;;;4.50;3.50;;;23.60;82.50;;;;;;4239871;28;20067;-75
2021/07/10 09:18:54;;;;;;;4.50;3.20;;;23.60;81.60;;;;;;4238363;28;20058;-75
2021/07/10 09:20:57;;;;;;;4.90;3.05;;;23.70;83.50;;;;;;4237003;28;20051;-77
2021/07/10 09:23:00;;;;;;;8.98;3.50;;;23.70;83.10;;;;;;4234136;28;20058;-77
2021/07/10 09:25:18;;;;;;;8.07;3.17;;;23.60;83.90;;;;;;4236005;28;20111;-77
2021/07/10 09:27:21;;;;;;;4.90;2.45;;;23.30;81.70;;;;;;4220400;28;20080;-76
2021/07/10 09:29:26;;;;;;;4.57;2.45;;;22.90;81.40;;;;;;4219927;28;20754;-74
2021/07/10 09:31:31;;;;;;;3.72;2.13;;;22.80;82.30;;;;;;4239696;28;20044;-75
2021/07/10 09:33:33;;;;;;;;;;;22.60;82.30;;;;;;4232320;28;20058;-74
2021/07/10 09:35:48;;;;;;;5.43;2.40;;;22.60;83.50;;;;;;4232502;27;19997;-76
2021/07/10 09:37:54;;;;;;;3.67;2.28;;;22.60;85.70;;;;;;4241629;27;20069;-77
2021/07/10 09:39:59;;;;;;;4.85;2.55;;;22.60;85.80;;;;;;4241602;27;20043;-76
2021/07/10 09:42:02;;;;;;;;;;;22.70;86.30;;;;;;4248974;27;20047;-76
2021/07/10 09:44:12;;;;;;;7.38;2.22;;;22.80;85.90;;;;;;4248521;27;19926;-73
2021/07/10 09:46:25;;;;;;;5.40;2.42;;;22.90;85.10;;;;;;4248545;27;20063;-75
2021/07/10 09:48:29;;;;;;;4.93;2.30;;;22.80;84.80;;;;;;4248791;27;20052;-74
2021/07/10 09:50:32;;;;;;;3.30;2.30;;;22.80;83.10;;;;;;4248616;27;20058;-74
2021/07/10 09:52:39;;;;;;;7.20;2.22;;;22.90;83.10;;;;;;4230642;27;20058;-74
2021/07/10 09:54:43;;;;;;;3.90;2.30;;;22.90;83.20;;;;;;4248828;27;20051;-75
2021/07/10 09:57:02;;;;;;;4.50;2.30;;;23.00;83.80;;;;;;4249249;27;20055;-74
2021/07/10 09:59:17;;;;;;;6.53;2.38;;;23.00;83.80;;;;;;4249973;27;20134;-73
2021/07/10 10:01:30;;;;;;;;;;;23.10;83.20;;;;;;4232201;28;20209;-73
2021/07/10 10:03:34;;;;;;;4.50;2.25;;;23.10;85.50;;;;;;4229860;28;19924;-75
2021/07/10 10:05:41;;;;;;;7.63;2.88;;;23.00;85.60;;;;;;4230272;28;20065;-75
2021/07/10 10:07:48;;;;;;;4.57;2.67;;;23.00;86.30;;;;;;4248256;27;20057;-75
2021/07/10 10:09:56;;;;;;;4.35;2.38;;;23.00;87.10;;;;;;4245811;27;20437;-74
2021/07/10 10:12:02;;;;;;;3.65;2.30;;;23.10;89.40;;;;;;4247668;27;20126;-74
2021/07/10 10:14:08;;;;;;;4.70;2.80;;;23.10;89.40;;;;;;4247525;27;20559;-74
2021/07/10 10:16:15;;;;;;;4.57;2.42;;;23.10;89.40;;;;;;4246882;27;20515;-74
2021/07/10 10:18:20;;;;;;;4.20;2.47;;;23.10;88.40;;;;;;4250816;27;20419;-74
2021/07/10 10:20:23;;;;;;;3.25;1.92;;;23.10;87.40;;;;;;4254115;27;20468;-73
2021/07/10 10:22:27;;;;;;;2.92;2.20;;;22.80;83.50;;;;;;4253549;27;20051;-75
2021/07/10 10:24:33;;;;;;;5.30;2.85;;;22.70;84.00;;;;;;4251365;27;21185;-76
2021/07/10 10:26:37;;;;;;;7.40;2.80;;;22.90;85.40;;;;;;4252832;27;20059;-74
2021/07/10 10:28:40;;;;;;;3.47;2.72;;;23.00;87.20;;;;;;4240212;28;20047;-76
2021/07/10 10:30:43;;;;;;;3.50;2.30;;;23.00;86.80;;;;;;4262756;27;20099;-75
2021/07/10 10:32:47;;;;;;;4.20;2.40;;;23.00;87.00;;;;;;4244793;27;20111;-74
2021/07/10 10:34:50;;;;;;;5.82;2.90;;;23.00;86.00;;;;;;4247329;27;20047;-74
2021/07/10 10:36:55;;;;;;;5.70;2.65;;;23.00;87.30;;;;;;4247603;27;20118;-74
2021/07/10 10:38:58;;;;;;;9.23;2.67;;;23.00;86.30;;;;;;4229890;28;20153;-77
2021/07/10 10:41:04;;;;;;;5.00;2.50;;;23.10;86.40;;;;;;4247242;27;20142;-74
2021/07/10 10:43:07;;;;;;;4.57;2.83;;;23.10;88.00;;;;;;4245673;27;20054;-75
2021/07/10 10:45:12;;;;;;;5.13;2.93;;;23.10;86.10;;;;;;4247864;27;20129;-75